createdAt,value
2023-05-25T00:01:03.088Z,9.70
2023-05-25T00:03:31.432Z,9.70
2023-05-25T00:06:01.442Z,9.60
2023-05-25T00:08:29.111Z,9.60
2023-05-25T00:10:55.851Z,9.60
2023-05-25T00:13:22.536Z,9.50
2023-05-25T00:15:49.390Z,9.40
2023-05-25T00:18:16.223Z,9.40
2023-05-25T00:20:44.559Z,9.40
2023-05-25T00:23:11.455Z,9.40
2023-05-25T00:25:38.252Z,9.40
2023-05-25T00:28:05.048Z,9.30
2023-05-25T00:30:31.860Z,9.30
2023-05-25T00:32:59.802Z,9.20
2023-05-25T00:35:26.649Z,9.20
2023-05-25T00:37:53.548Z,9.20
2023-05-25T00:40:20.860Z,9.10
2023-05-25T00:42:47.633Z,9.10
2023-05-25T00:45:14.678Z,9.10
2023-05-25T00:47:41.605Z,9.10
2023-05-25T00:50:10.612Z,9.10
2023-05-25T00:52:37.392Z,9.10
2023-05-25T00:55:06.682Z,9.10
2023-05-25T00:57:37.774Z,9.10
2023-05-25T01:00:11.395Z,9.10
2023-05-25T01:02:41.120Z,9.00
2023-05-25T01:05:10.716Z,9.00
2023-05-25T01:07:39.103Z,9.10
2023-05-25T01:10:09.721Z,9.00
2023-05-25T01:12:38.531Z,9.00
2023-05-25T01:15:06.365Z,9.10
2023-05-25T01:17:37.981Z,9.00
2023-05-25T01:20:11.663Z,8.90
2023-05-25T01:22:59.851Z,8.90
2023-05-25T01:25:40.728Z,8.90
2023-05-25T01:28:11.667Z,8.90
2023-05-25T01:30:42.169Z,8.80
2023-05-25T01:33:10.792Z,8.80
2023-05-25T01:35:38.814Z,8.70
2023-05-25T01:38:05.852Z,8.70
2023-05-25T01:40:32.798Z,8.70
2023-05-25T01:42:59.628Z,8.70
2023-05-25T01:45:26.934Z,8.60
2023-05-25T01:48:03.425Z,8.60
2023-05-25T01:50:57.410Z,8.60
2023-05-25T01:53:29.505Z,8.60
2023-05-25T01:56:02.317Z,8.60
2023-05-25T01:58:34.791Z,8.50
2023-05-25T02:01:01.802Z,8.50
2023-05-25T02:03:28.843Z,8.50
2023-05-25T02:05:57.836Z,8.40
2023-05-25T02:08:24.770Z,8.40
2023-05-25T02:10:51.513Z,8.30
2023-05-25T02:13:18.373Z,8.30
2023-05-25T02:15:45.228Z,8.30
2023-05-25T02:18:13.718Z,8.30
2023-05-25T02:20:40.912Z,8.20
2023-05-25T02:23:07.828Z,8.30
2023-05-25T02:25:35.944Z,8.20
2023-05-25T02:28:02.759Z,8.20
2023-05-25T02:30:29.423Z,8.10
2023-05-25T02:32:56.624Z,8.10
2023-05-25T02:35:23.679Z,8.10
2023-05-25T02:37:51.230Z,8.10
2023-05-25T02:40:18.732Z,8.10
2023-05-25T02:42:45.722Z,8.10
2023-05-25T02:45:12.652Z,8.10
2023-05-25T02:47:39.423Z,8.10
2023-05-25T02:50:06.899Z,8.00
2023-05-25T02:52:33.747Z,8.00
2023-05-25T02:55:00.993Z,8.00
2023-05-25T02:57:28.449Z,8.00
2023-05-25T02:59:55.176Z,7.90
2023-05-25T03:02:25.474Z,7.90
2023-05-25T03:04:53.765Z,8.00
2023-05-25T03:07:21.478Z,8.00
2023-05-25T03:09:48.175Z,8.00
2023-05-25T03:12:15.026Z,8.00
2023-05-25T03:14:41.934Z,8.10
2023-05-25T03:17:08.610Z,8.10
2023-05-25T03:19:35.359Z,8.10
2023-05-25T03:22:03.701Z,8.10
2023-05-25T03:24:30.436Z,8.00
2023-05-25T03:26:57.111Z,8.10
2023-05-25T03:29:23.923Z,8.10
2023-05-25T03:31:50.923Z,8.10
2023-05-25T03:34:18.489Z,8.00
2023-05-25T03:36:47.427Z,8.00
2023-05-25T03:39:14.260Z,8.00
2023-05-25T03:41:40.929Z,8.00
2023-05-25T03:44:07.765Z,8.00
2023-05-25T03:46:34.547Z,7.90
2023-05-25T03:49:01.380Z,7.90
2023-05-25T03:51:29.924Z,7.90
2023-05-25T03:53:56.767Z,7.90
2023-05-25T03:56:23.622Z,7.80
2023-05-25T03:58:50.495Z,7.80
2023-05-25T04:01:17.289Z,7.80
2023-05-25T04:03:44.165Z,7.80
2023-05-25T04:06:11.604Z,7.80
2023-05-25T04:08:41.164Z,7.90
2023-05-25T04:11:07.959Z,7.90
2023-05-25T04:13:36.417Z,7.90
2023-05-25T04:16:03.310Z,7.90
2023-05-25T04:18:30.164Z,7.90
2023-05-25T04:20:57.454Z,7.90
2023-05-25T04:23:24.412Z,7.90
2023-05-25T04:25:51.407Z,8.00
2023-05-25T04:28:18.910Z,8.00
2023-05-25T04:30:45.850Z,8.10
2023-05-25T04:33:12.781Z,8.20
2023-05-25T04:35:40.817Z,8.30
2023-05-25T04:38:07.813Z,8.20
2023-05-25T04:40:35.456Z,8.30
2023-05-25T04:43:03.477Z,8.30
2023-05-25T04:45:31.960Z,8.40
2023-05-25T04:48:01.468Z,8.40
2023-05-25T04:50:28.992Z,8.50
2023-05-25T04:52:55.743Z,8.50
2023-05-25T04:55:22.476Z,8.60
2023-05-25T04:57:49.636Z,8.60
2023-05-25T05:00:17.056Z,8.70
2023-05-25T05:02:44.147Z,8.80
2023-05-25T05:05:11.098Z,8.80
2023-05-25T05:07:38.331Z,8.90
2023-05-25T05:10:06.254Z,8.90
2023-05-25T05:12:33.048Z,9.00
2023-05-25T05:14:59.816Z,9.00
2023-05-25T05:17:28.044Z,9.10
2023-05-25T05:19:54.841Z,9.20
2023-05-25T05:25:16.784Z,9.50
2023-05-25T05:27:43.618Z,9.60
2023-05-25T05:30:10.937Z,9.60
2023-05-25T05:32:37.633Z,9.80
2023-05-25T05:35:05.760Z,9.90
2023-05-25T05:37:32.418Z,10.00
2023-05-25T05:39:59.252Z,10.10
2023-05-25T05:42:26.030Z,10.20
2023-05-25T05:44:52.743Z,10.30
2023-05-25T05:47:19.461Z,10.40
2023-05-25T05:49:47.388Z,10.40
2023-05-25T05:52:14.308Z,10.50
2023-05-25T05:54:41.131Z,10.60
2023-05-25T05:57:07.859Z,10.70
2023-05-25T05:59:34.811Z,10.80
2023-05-25T06:02:01.595Z,10.90
2023-05-25T06:04:29.129Z,11.00
2023-05-25T06:06:56.152Z,11.10
2023-05-25T06:09:25.867Z,11.20
2023-05-25T06:11:52.813Z,11.30
2023-05-25T06:14:19.786Z,11.40
2023-05-25T06:16:46.678Z,11.50
2023-05-25T06:19:14.541Z,11.50
2023-05-25T06:21:41.481Z,11.60
2023-05-25T06:24:09.812Z,11.70
2023-05-25T06:26:36.575Z,11.80
2023-05-25T06:29:03.295Z,11.90
2023-05-25T06:31:30.263Z,12.00
2023-05-25T06:33:58.211Z,12.00
2023-05-25T06:36:25.312Z,12.10
2023-05-25T06:38:52.765Z,12.20
2023-05-25T06:41:20.296Z,12.20
2023-05-25T06:43:47.821Z,12.20
2023-05-25T06:46:18.220Z,12.20
2023-05-25T06:48:46.631Z,12.20
2023-05-25T06:51:14.087Z,12.10
2023-05-25T06:53:41.220Z,12.10
2023-05-25T06:56:09.507Z,12.00
2023-05-25T06:58:36.486Z,12.00
2023-05-25T07:01:03.766Z,12.10
2023-05-25T07:03:31.256Z,12.20
2023-05-25T07:05:58.539Z,12.20
2023-05-25T07:08:25.371Z,12.30
2023-05-25T07:10:52.088Z,12.30
2023-05-25T07:13:18.897Z,12.30
2023-05-25T07:15:47.258Z,12.20
2023-05-25T07:18:14.672Z,12.30
2023-05-25T07:20:42.246Z,12.40
2023-05-25T07:23:12.158Z,12.40
2023-05-25T07:25:40.157Z,12.50
2023-05-25T07:28:08.801Z,12.60
2023-05-25T07:30:37.619Z,12.60
2023-05-25T07:33:06.884Z,12.70
2023-05-25T07:35:36.199Z,12.70
2023-05-25T07:38:07.157Z,12.70
2023-05-25T07:40:34.647Z,12.60
2023-05-25T07:43:02.504Z,12.70
2023-05-25T07:45:29.298Z,12.70
2023-05-25T07:47:56.127Z,12.60
2023-05-25T07:50:24.338Z,12.70
2023-05-25T07:52:54.661Z,12.80
2023-05-25T07:55:28.812Z,12.70
2023-05-25T07:58:01.786Z,12.70
2023-05-25T08:00:32.379Z,12.80
2023-05-25T08:02:59.648Z,12.80
2023-05-25T08:05:26.997Z,12.80
2023-05-25T08:07:54.051Z,12.80
2023-05-25T08:10:20.856Z,12.80
2023-05-25T08:12:49.386Z,12.90
2023-05-25T08:15:17.654Z,13.00
2023-05-25T08:17:44.797Z,13.10
2023-05-25T08:20:12.397Z,13.30
2023-05-25T08:22:39.308Z,13.50
2023-05-25T08:25:07.068Z,13.70
2023-05-25T08:27:35.945Z,13.70
2023-05-25T08:30:03.505Z,13.70
2023-05-25T08:32:30.434Z,13.60
2023-05-25T08:34:57.256Z,13.60
2023-05-25T08:37:24.950Z,13.40
2023-05-25T08:39:51.692Z,13.40
2023-05-25T08:42:18.515Z,13.50
2023-05-25T08:44:45.393Z,13.70
2023-05-25T08:47:13.377Z,14.40
2023-05-25T08:49:41.737Z,15.10
2023-05-25T08:52:14.932Z,15.40
2023-05-25T08:54:44.994Z,15.50
2023-05-25T08:57:20.907Z,15.40
2023-05-25T09:00:04.241Z,15.20
2023-05-25T09:02:35.867Z,14.90
2023-05-25T09:05:02.997Z,14.70
2023-05-25T09:07:30.446Z,14.50
2023-05-25T09:09:58.461Z,14.30
2023-05-25T09:12:25.401Z,14.30
2023-05-25T09:14:53.909Z,14.10
2023-05-25T09:17:21.357Z,14.00
2023-05-25T09:19:49.937Z,14.00
2023-05-25T09:22:17.265Z,13.90
2023-05-25T09:24:45.311Z,14.00
2023-05-25T09:27:13.662Z,14.00
2023-05-25T09:29:40.617Z,14.10
2023-05-25T09:32:07.972Z,14.30
2023-05-25T09:34:35.451Z,14.30
2023-05-25T09:37:16.380Z,14.40
2023-05-25T09:39:44.577Z,14.40
2023-05-25T09:42:12.176Z,14.50
2023-05-25T09:44:40.607Z,14.40
2023-05-25T09:47:07.455Z,14.40
2023-05-25T09:49:35.583Z,14.40
2023-05-25T09:52:02.487Z,14.20
2023-05-25T09:54:29.698Z,14.20
2023-05-25T09:56:56.443Z,14.10
2023-05-25T09:59:23.723Z,14.20
2023-05-25T10:01:53.805Z,14.30
2023-05-25T10:04:21.107Z,14.30
2023-05-25T10:06:50.011Z,14.40
2023-05-25T10:09:19.264Z,14.70
2023-05-25T10:11:46.453Z,14.90
2023-05-25T10:14:17.580Z,15.00
2023-05-25T10:16:50.247Z,15.00
2023-05-25T10:19:33.265Z,15.00
2023-05-25T10:22:08.826Z,15.00
2023-05-25T10:24:53.953Z,15.10
2023-05-25T10:27:27.611Z,15.20
2023-05-25T10:29:56.760Z,15.20
2023-05-25T10:32:24.796Z,15.30
2023-05-25T10:34:52.775Z,15.40
2023-05-25T10:37:19.938Z,15.50
2023-05-25T10:39:47.609Z,15.50
2023-05-25T10:42:14.344Z,15.70
2023-05-25T10:44:43.128Z,15.90
2023-05-25T10:47:10.550Z,15.90
2023-05-25T10:49:53.585Z,16.00
2023-05-25T10:52:21.446Z,16.10
2023-05-25T10:54:48.664Z,16.10
2023-05-25T10:57:23.108Z,16.00
2023-05-25T10:59:51.581Z,16.00
2023-05-25T11:02:29.059Z,16.20
2023-05-25T11:05:26.880Z,16.40
2023-05-25T11:07:58.581Z,16.70
2023-05-25T11:10:43.559Z,16.80
2023-05-25T11:13:31.288Z,16.70
2023-05-25T11:16:14.886Z,16.50
2023-05-25T11:18:42.132Z,16.40
2023-05-25T11:21:18.789Z,16.30
2023-05-25T11:24:03.062Z,16.20
2023-05-25T11:26:32.498Z,16.20
2023-05-25T11:29:00.700Z,16.40
2023-05-25T11:31:35.230Z,16.40
2023-05-25T11:34:05.225Z,16.70
2023-05-25T11:36:34.732Z,16.70
2023-05-25T11:39:09.141Z,16.90
2023-05-25T11:41:47.691Z,17.10
2023-05-25T11:44:14.773Z,17.30
2023-05-25T11:46:43.694Z,17.40
2023-05-25T11:49:10.760Z,17.30
2023-05-25T11:51:38.000Z,17.20
2023-05-25T11:54:04.948Z,17.30
2023-05-25T11:56:35.880Z,17.30
2023-05-25T11:59:07.258Z,17.20
2023-05-25T12:01:33.978Z,17.20
2023-05-25T12:04:09.221Z,17.10
2023-05-25T12:06:40.268Z,17.00
2023-05-25T12:09:13.116Z,17.10
2023-05-25T12:11:40.006Z,16.80
2023-05-25T12:14:07.539Z,16.80
2023-05-25T12:16:37.086Z,16.90
2023-05-25T12:19:04.605Z,17.20
2023-05-25T12:21:32.232Z,17.30
2023-05-25T12:23:59.581Z,17.30
2023-05-25T12:26:26.980Z,17.40
2023-05-25T12:29:08.192Z,17.40
2023-05-25T12:31:38.756Z,17.50
2023-05-25T12:34:08.238Z,17.60
2023-05-25T12:36:52.615Z,17.40
2023-05-25T12:39:31.315Z,17.30
2023-05-25T12:41:59.684Z,17.40
2023-05-25T12:44:32.445Z,17.50
2023-05-25T12:47:25.440Z,17.50
2023-05-25T12:49:54.239Z,17.50
2023-05-25T12:52:38.221Z,17.40
2023-05-25T12:55:28.136Z,17.50
2023-05-25T12:57:55.684Z,17.50
2023-05-25T13:00:23.857Z,17.40
2023-05-25T13:02:51.538Z,17.30
2023-05-25T13:05:23.317Z,17.20
2023-05-25T13:07:50.539Z,17.00
2023-05-25T13:10:18.210Z,16.90
2023-05-25T13:12:46.785Z,16.90
2023-05-25T13:15:15.352Z,17.20
2023-05-25T13:17:45.492Z,17.50
2023-05-25T13:20:14.177Z,17.60
2023-05-25T13:22:43.457Z,17.40
2023-05-25T13:25:11.980Z,17.40
2023-05-25T13:27:41.356Z,17.40
2023-05-25T13:30:08.703Z,17.50
2023-05-25T13:32:35.570Z,17.50
2023-05-25T13:35:04.582Z,17.50
2023-05-25T13:37:33.227Z,17.40
2023-05-25T13:40:00.415Z,17.30
2023-05-25T13:42:27.249Z,17.20
2023-05-25T13:44:53.950Z,17.10
2023-05-25T13:47:20.710Z,17.00
2023-05-25T13:49:47.686Z,17.00
2023-05-25T13:52:14.479Z,17.20
2023-05-25T13:54:41.153Z,17.20
2023-05-25T13:57:07.870Z,17.10
2023-05-25T13:59:34.630Z,17.20
2023-05-25T14:04:37.647Z,17.10
2023-05-25T14:07:04.489Z,17.10
2023-05-25T14:09:31.883Z,17.10
2023-05-25T14:11:58.594Z,17.30
2023-05-25T14:14:32.036Z,17.40
2023-05-25T14:17:01.052Z,17.50
2023-05-25T14:19:28.058Z,17.50
2023-05-25T14:24:24.339Z,17.10
2023-05-25T14:26:51.100Z,16.90
2023-05-25T14:29:17.797Z,16.80
2023-05-25T14:31:44.594Z,16.70
2023-05-25T14:34:11.302Z,16.80
2023-05-25T14:36:38.207Z,17.00
2023-05-25T14:39:05.217Z,17.20
2023-05-25T14:41:31.927Z,17.40
2023-05-25T14:43:58.606Z,17.60
2023-05-25T14:46:25.357Z,17.70
2023-05-25T14:48:52.027Z,17.80
2023-05-25T14:51:18.726Z,17.80
2023-05-25T14:53:45.891Z,17.80
2023-05-25T14:56:12.639Z,17.80
2023-05-25T14:58:39.397Z,17.80
2023-05-25T15:01:06.132Z,17.70
2023-05-25T15:03:33.096Z,17.60
2023-05-25T15:05:59.914Z,17.60
2023-05-25T15:08:26.936Z,17.50
2023-05-25T15:10:53.746Z,17.30
2023-05-25T15:13:22.533Z,17.20
2023-05-25T15:15:52.001Z,17.10
2023-05-25T15:18:18.832Z,17.10
2023-05-25T15:20:45.681Z,17.00
2023-05-25T15:23:13.588Z,17.10
2023-05-25T15:25:40.266Z,17.10
2023-05-25T15:28:07.065Z,17.10
2023-05-25T15:30:34.558Z,17.10
2023-05-25T15:33:01.964Z,17.20
2023-05-25T15:35:32.102Z,17.20
2023-05-25T15:37:59.811Z,17.30
2023-05-25T15:40:27.091Z,17.40
2023-05-25T15:42:53.890Z,17.50
2023-05-25T15:45:20.622Z,17.60
2023-05-25T15:47:47.454Z,17.50
2023-05-25T15:50:14.169Z,17.60
2023-05-25T15:52:41.913Z,17.50
2023-05-25T15:55:09.658Z,17.40
2023-05-25T15:57:36.305Z,17.40
2023-05-25T16:00:05.566Z,17.40
2023-05-25T16:02:32.688Z,17.40
2023-05-25T16:04:59.433Z,17.50
2023-05-25T16:07:26.673Z,17.50
2023-05-25T16:09:53.410Z,17.60
2023-05-25T16:12:24.744Z,17.60
2023-05-25T16:14:52.178Z,17.60
2023-05-25T16:17:19.301Z,17.40
2023-05-25T16:19:46.449Z,17.30
2023-05-25T16:22:13.255Z,17.20
2023-05-25T16:24:40.174Z,17.10
2023-05-25T16:27:07.090Z,17.00
2023-05-25T16:29:33.805Z,16.90
2023-05-25T16:32:00.589Z,16.90
2023-05-25T16:34:27.278Z,17.00
2023-05-25T16:36:53.963Z,17.10
2023-05-25T16:39:20.692Z,17.20
2023-05-25T16:41:49.460Z,17.30
2023-05-25T16:44:17.473Z,17.30
2023-05-25T16:46:44.298Z,17.40
2023-05-25T16:49:11.115Z,17.30
2023-05-25T16:51:37.887Z,17.30
2023-05-25T16:54:04.717Z,17.20
2023-05-25T16:56:31.738Z,17.20
2023-05-25T16:58:58.420Z,17.10
2023-05-25T17:01:25.234Z,17.10
2023-05-25T17:03:52.027Z,17.10
2023-05-25T17:06:18.745Z,17.10
2023-05-25T17:08:45.416Z,17.10
2023-05-25T17:11:12.305Z,17.00
2023-05-25T17:13:39.063Z,16.90
2023-05-25T17:16:05.987Z,16.90
2023-05-25T17:18:32.661Z,16.70
2023-05-25T17:20:59.360Z,16.70
2023-05-25T17:23:26.028Z,16.70
2023-05-25T17:25:52.742Z,16.70
2023-05-25T17:28:19.397Z,16.80
2023-05-25T17:30:46.082Z,16.90
2023-05-25T17:33:12.872Z,17.00
2023-05-25T17:35:39.627Z,17.10
2023-05-25T17:38:06.298Z,17.20
2023-05-25T17:40:33.041Z,17.20
2023-05-25T17:42:59.756Z,17.30
2023-05-25T17:45:26.526Z,17.30
2023-05-25T17:47:53.262Z,17.30
2023-05-25T17:50:20.034Z,17.20
2023-05-25T17:52:46.728Z,17.20
2023-05-25T17:55:13.608Z,17.10
2023-05-25T17:57:40.405Z,17.10
2023-05-25T18:00:07.757Z,17.00
2023-05-25T18:02:34.678Z,16.90
2023-05-25T18:05:01.531Z,16.80
2023-05-25T18:07:28.248Z,16.80
2023-05-25T18:09:54.979Z,16.70
2023-05-25T18:12:21.671Z,16.60
2023-05-25T18:14:48.936Z,16.50
2023-05-25T18:17:15.721Z,16.40
2023-05-25T18:19:42.432Z,16.30
2023-05-25T18:22:09.155Z,16.30
2023-05-25T18:24:36.136Z,16.30
2023-05-25T18:27:03.794Z,16.20
2023-05-25T18:29:30.985Z,16.20
2023-05-25T18:31:57.686Z,16.10
2023-05-25T18:34:24.349Z,16.10
2023-05-25T18:36:51.277Z,16.00
2023-05-25T18:39:17.989Z,16.00
2023-05-25T18:41:44.663Z,15.90
2023-05-25T18:44:11.562Z,15.90
2023-05-25T18:46:40.714Z,15.90
2023-05-25T18:49:07.532Z,15.70
2023-05-25T18:51:34.260Z,15.60
2023-05-25T18:54:01.186Z,15.60
2023-05-25T18:56:27.943Z,15.50
2023-05-25T18:58:56.949Z,15.50
2023-05-25T19:01:25.656Z,15.50
2023-05-25T19:03:52.680Z,15.40
2023-05-25T19:06:20.040Z,15.40
2023-05-25T19:08:46.841Z,15.30
2023-05-25T19:11:15.477Z,15.20
2023-05-25T19:13:42.292Z,15.20
2023-05-25T19:16:09.484Z,15.10
2023-05-25T19:18:36.198Z,15.00
2023-05-25T19:21:03.473Z,15.00
2023-05-25T19:23:30.539Z,14.90
2023-05-25T19:25:57.225Z,14.90
2023-05-25T19:28:23.982Z,14.80
2023-05-25T19:30:50.866Z,14.70
2023-05-25T19:33:17.772Z,14.70
2023-05-25T19:35:45.272Z,14.70
2023-05-25T19:38:12.702Z,14.60
2023-05-25T19:40:39.599Z,14.60
2023-05-25T19:43:06.334Z,14.50
2023-05-25T19:45:33.131Z,14.40
2023-05-25T19:47:59.844Z,14.40
2023-05-25T19:50:30.412Z,14.30
2023-05-25T19:52:58.866Z,14.20
2023-05-25T19:55:28.965Z,14.20
2023-05-25T19:57:55.659Z,14.10
2023-05-25T20:00:26.675Z,14.00
2023-05-25T20:02:53.972Z,13.90
2023-05-25T20:05:20.985Z,13.80
2023-05-25T20:07:47.821Z,13.70
2023-05-25T20:10:14.688Z,13.70
2023-05-25T20:12:41.435Z,13.70
2023-05-25T20:15:09.541Z,13.70
2023-05-25T20:17:36.628Z,13.60
2023-05-25T20:20:05.182Z,13.60
2023-05-25T20:22:35.338Z,13.50
2023-05-25T20:25:02.468Z,13.50
2023-05-25T20:27:29.153Z,13.50
2023-05-25T20:29:55.900Z,13.40
2023-05-25T20:32:22.718Z,13.40
2023-05-25T20:34:49.926Z,13.30
2023-05-25T20:37:17.251Z,13.30
2023-05-25T20:39:44.084Z,13.20
2023-05-25T20:42:11.825Z,13.10
2023-05-25T20:44:38.632Z,13.00
2023-05-25T20:47:05.501Z,12.90
2023-05-25T20:49:32.173Z,12.80
2023-05-25T20:51:58.864Z,12.80
2023-05-25T20:54:25.570Z,12.80
2023-05-25T20:56:58.441Z,12.70
2023-05-25T20:59:25.377Z,12.70
2023-05-25T21:01:52.117Z,12.70
2023-05-25T21:04:19.204Z,12.60
2023-05-25T21:06:46.318Z,12.50
2023-05-25T21:09:13.011Z,12.50
2023-05-25T21:11:39.896Z,12.50
2023-05-25T21:14:07.126Z,12.40
2023-05-25T21:16:33.927Z,12.40
2023-05-25T21:19:01.292Z,12.40
2023-05-25T21:21:33.882Z,12.40
2023-05-25T21:24:03.831Z,12.30
2023-05-25T21:26:31.105Z,12.30
2023-05-25T21:28:58.078Z,12.20
2023-05-25T21:31:25.477Z,12.20
2023-05-25T21:33:53.188Z,12.20
2023-05-25T21:36:20.710Z,12.10
2023-05-25T21:38:47.381Z,12.10
2023-05-25T21:41:14.343Z,12.00
2023-05-25T21:43:41.085Z,12.00
2023-05-25T21:46:07.908Z,11.90
2023-05-25T21:48:34.824Z,11.90
2023-05-25T21:51:01.496Z,11.90
2023-05-25T21:53:28.247Z,11.80
2023-05-25T21:55:54.948Z,11.80
2023-05-25T21:58:21.614Z,11.70
2023-05-25T22:00:48.567Z,11.70
2023-05-25T22:03:15.552Z,11.60
2023-05-25T22:05:42.452Z,11.60
2023-05-25T22:08:09.432Z,11.50
2023-05-25T22:10:39.024Z,11.50
2023-05-25T22:13:05.685Z,11.50
2023-05-25T22:15:32.372Z,11.40
2023-05-25T22:17:59.752Z,11.40
2023-05-25T22:20:26.726Z,11.40
2023-05-25T22:22:53.635Z,11.30
2023-05-25T22:25:20.353Z,11.30
2023-05-25T22:27:47.031Z,11.20
2023-05-25T22:30:13.923Z,11.20
2023-05-25T22:32:40.713Z,11.20
2023-05-25T22:35:07.924Z,11.10
2023-05-25T22:37:34.677Z,11.10
2023-05-25T22:40:01.825Z,11.10
2023-05-25T22:42:28.540Z,11.10
2023-05-25T22:44:55.305Z,11.10
2023-05-25T22:47:22.026Z,11.00
2023-05-25T22:49:48.761Z,11.00
2023-05-25T22:52:15.756Z,10.90
2023-05-25T22:54:42.816Z,10.90
2023-05-25T22:57:09.935Z,10.90
2023-05-25T22:59:36.761Z,10.80
2023-05-25T23:02:03.624Z,10.80
2023-05-25T23:04:30.471Z,10.70
2023-05-25T23:06:57.431Z,10.70
2023-05-25T23:09:24.110Z,10.70
2023-05-25T23:11:50.756Z,10.70
2023-05-25T23:14:17.460Z,10.60
2023-05-25T23:16:44.660Z,10.60
2023-05-25T23:19:11.457Z,10.60
2023-05-25T23:21:38.308Z,10.50
2023-05-25T23:24:05.905Z,10.50
2023-05-25T23:26:32.824Z,10.40
2023-05-25T23:28:59.574Z,10.30
2023-05-25T23:31:26.828Z,10.30
2023-05-25T23:33:54.043Z,10.30
2023-05-25T23:36:20.903Z,10.30
2023-05-25T23:38:47.624Z,10.20
2023-05-25T23:41:16.427Z,10.20
2023-05-25T23:43:43.161Z,10.30
2023-05-25T23:46:09.888Z,10.20
2023-05-25T23:48:36.687Z,10.20
2023-05-25T23:51:04.054Z,10.20
2023-05-25T23:53:30.999Z,10.10
2023-05-25T23:55:57.661Z,10.10
2023-05-25T23:58:25.658Z,10.00
